Waverly Hall, GA (31831)

5:49 PM EDT on September 02, 2014 (GMT -0400)
RoseParadiseFarm Hwy 36 | Change Station
CLOSE
Current Station
Personal Weather Station
Location: Waverly Hall, GA
Elevation: 804 ft
Nearby Weather Stations

Elev 804 ft 32.70 °N, 84.70 °W | Updated 7 seconds ago

Partly Cloudy
Partly Cloudy
95.9 °F
Feels Like 101 °F
N
1.0
Wind Variable Wind from SW
Gusts 4.0 mph

Today
High -- | Low -- °F
--% Chance of Precip.
Yesterday
High -- | Low -- °F
Precip. -- in
7:14 AM 8:02 PM
First Quarter, 55% visible
Pressure 29.96 in
Visibility 10.0 miles
Clouds Scattered Clouds 6500 ft
Scattered Clouds 8000 ft
Heat Index 101 °F
Dew Point 68 °F
Humidity 41%
Rainfall 0.00 in
Snow Depth Not available.
UV 4 out of 12
Pollen 9.20 out of 12
Air Quality Not available.
Flu Activity Not available.
METAR KCSG 022051Z VRB05KT 10SM SCT065 SCT080 36/19 A2997 RMK AO2 SLP144 T03560189 56034

More Conditions Fewer Conditions

Pressure 29.96 in
Visibility 10.0 miles
Clouds Scattered Clouds 6500 ft
Scattered Clouds 8000 ft
Heat Index 101 °F
Dew Point 68 °F
Humidity 41%
Rainfall 0.00 in
Snow Depth Not available.
UV 4 out of 12
Pollen 9.20 out of 12
Air Quality Not available.
Flu Activity Not available.
METAR KCSG 022051Z VRB05KT 10SM SCT065 SCT080 36/19 A2997 RMK AO2 SLP144 T03560189 56034

More Conditions Fewer Conditions

10-Day Weather Forecast

Almanac

Astronomy

Sep. 02, 2014 Rise Set
Actual Time 7:14 AM EDT 8:02 PM EDT
Civil Twilight 6:49 AM EDT 8:27 PM EDT
Nautical Twilight 6:19 AM EDT 8:56 PM EDT
Astronomical Twilight 5:49 AM EDT 9:27 PM EDT
Moon 2:34 PM EDT 12:26 AM EDT
Length of Visible Light 13h 38m
Length of Day
12h 47m
Tomorrow will be 1m 56s shorter.
First Quarter, 55% of the Moon is Illuminated
Today
First Quarter
Sep 8
Full
Sep 15
Last Quarter
Sep 24
New
Oct 1
First Quarter

Today's Extremes

State Highs State Lows

Community

WunderPhotos

Upload Photos

1,749,782 photos uploaded!

Nearby

Snow Depth

Station Depth Elevation
No new snow has been reported.

Earthquake Activity

City Distance Mag. Time & Date
No recent earthquake activity has been reported nearby.
Minimum magnitude displayed is 2.5.

Coastal Water Temperatures

Place Temperature
No Stations Reporting

Nearby Weather Stations